Time;durP1;ratioP1;P1;durP2;ratioP2;P2;SDS_P1;SDS_P2;PMS_P1;PMS_P2;Temp;Humidity;BMP_temperature;BMP_pressure;BME280_temperature;BME280_humidity;BME280_pressure;Samples;Min_cycle;Max_cycle;Signal;HPM_P1;HPM_P2
2021/12/22 00:00:57;;;;;;;28.63;17.67;;;2.70;72.90;;;;;;5075096;28;20474;-69
2021/12/22 00:03:23;;;;;;;31.93;17.63;;;2.70;72.90;;;;;;5074492;28;20033;-69
2021/12/22 00:05:51;;;;;;;28.53;17.03;;;2.70;72.90;;;;;;5076605;28;20356;-69
2021/12/22 00:08:17;;;;;;;29.17;19.00;;;2.60;72.80;;;;;;5075270;28;20040;-69
2021/12/22 00:10:45;;;;;;;26.23;17.13;;;2.60;72.80;;;;;;5075489;28;20063;-69
2021/12/22 00:13:11;;;;;;;28.23;18.00;;;2.60;72.90;;;;;;5075956;28;20028;-69
2021/12/22 00:15:37;;;;;;;26.40;17.90;;;2.70;72.90;;;;;;5075175;28;20062;-69
2021/12/22 00:18:03;;;;;;;30.43;18.07;;;2.60;72.90;;;;;;5074613;28;20442;-69
2021/12/22 00:20:29;;;;;;;30.20;18.17;;;2.60;72.90;;;;;;5058534;28;20111;-69
2021/12/22 00:22:55;;;;;;;28.20;17.87;;;2.60;72.90;;;;;;5058091;28;20052;-69
2021/12/22 00:25:24;;;;;;;30.57;18.27;;;2.60;73.00;;;;;;5074872;28;20025;-69
2021/12/22 00:27:50;;;;;;;27.97;17.23;;;2.60;73.00;;;;;;5075248;28;20453;-69
2021/12/22 00:30:16;;;;;;;30.70;18.80;;;2.60;72.90;;;;;;5074992;28;20389;-69
2021/12/22 00:32:49;;;;;;;28.63;17.73;;;2.50;72.80;;;;;;5075915;28;20032;-69
2021/12/22 00:35:15;;;;;;;29.97;17.33;;;2.50;72.90;;;;;;5076218;28;20032;-69
2021/12/22 00:37:41;;;;;;;30.30;17.87;;;2.50;72.90;;;;;;5075664;28;20112;-69
2021/12/22 00:40:07;;;;;;;30.67;18.30;;;2.50;72.90;;;;;;5074929;28;20025;-70
2021/12/22 00:42:33;;;;;;;30.83;17.40;;;2.50;72.90;;;;;;5057507;28;20024;-69
2021/12/22 00:44:58;;;;;;;29.30;17.80;;;2.50;72.90;;;;;;5075746;28;20031;-69
2021/12/22 00:47:27;;;;;;;29.20;17.57;;;2.50;73.00;;;;;;5075660;28;20017;-69
2021/12/22 00:49:54;;;;;;;27.87;17.33;;;2.50;72.90;;;;;;5058028;28;20024;-68
2021/12/22 00:52:20;;;;;;;26.23;16.40;;;2.50;72.90;;;;;;5074385;28;20453;-69
2021/12/22 00:54:45;;;;;;;25.63;17.27;;;2.50;72.90;;;;;;5074752;28;20021;-69
2021/12/22 00:57:11;;;;;;;27.60;16.57;;;2.40;72.90;;;;;;5075194;28;20069;-69
2021/12/22 00:59:38;;;;;;;27.53;16.67;;;2.40;72.90;;;;;;5074479;28;20036;-69
2021/12/22 01:02:08;;;;;;;32.07;17.83;;;2.40;72.90;;;;;;5074335;28;20024;-69
2021/12/22 01:04:34;;;;;;;27.27;15.53;;;2.40;72.90;;;;;;5075736;28;20028;-69
2021/12/22 01:07:00;;;;;;;23.50;16.07;;;2.40;72.90;;;;;;5057353;28;20028;-69
2021/12/22 01:09:26;;;;;;;32.03;17.13;;;2.40;72.90;;;;;;5055435;28;20457;-69
2021/12/22 01:11:52;;;;;;;27.13;17.03;;;2.40;73.00;;;;;;5075264;28;20032;-68
2021/12/22 01:14:18;;;;;;;31.27;17.27;;;2.30;72.90;;;;;;5074062;28;20083;-69
2021/12/22 01:16:49;;;;;;;28.13;16.63;;;2.40;72.90;;;;;;5073214;28;20370;-69
2021/12/22 01:19:21;;;;;;;27.13;17.08;;;2.30;72.90;;;;;;5073746;28;20060;-68
2021/12/22 01:21:54;;;;;;;28.63;15.87;;;2.30;72.90;;;;;;5073891;28;20025;-69
2021/12/22 01:24:31;;;;;;;25.30;15.87;;;2.30;72.90;;;;;;5074896;28;20063;-69
2021/12/22 01:27:04;;;;;;;27.17;15.60;;;2.20;72.90;;;;;;5090668;28;20036;-68
2021/12/22 01:29:34;;;;;;;28.90;16.03;;;2.30;73.00;;;;;;5073901;28;20048;-69
2021/12/22 01:32:01;;;;;;;24.47;14.70;;;2.20;73.00;;;;;;5070753;28;20020;-69
2021/12/22 01:34:27;;;;;;;27.57;16.17;;;2.30;72.90;;;;;;5074290;28;20137;-68
2021/12/22 01:36:53;;;;;;;28.67;16.10;;;2.30;72.90;;;;;;5075059;28;20556;-69
2021/12/22 01:39:19;;;;;;;27.27;16.67;;;2.30;72.80;;;;;;5074183;28;20116;-69
2021/12/22 01:41:45;;;;;;;25.80;15.13;;;2.30;72.80;;;;;;5071961;28;20024;-69
2021/12/22 01:44:13;;;;;;;27.50;16.20;;;2.20;72.80;;;;;;5069213;28;20036;-68
2021/12/22 01:49:49;;;;;;;30.23;15.90;;;2.20;72.70;;;;;;5074765;28;20092;-69
2021/12/22 01:52:15;;;;;;;26.70;16.20;;;2.20;72.70;;;;;;5072953;28;20035;-69
2021/12/22 01:54:50;;;;;;;28.73;16.33;;;2.20;72.70;;;;;;5073492;28;20346;-68
2021/12/22 01:57:17;;;;;;;25.33;15.90;;;2.20;72.70;;;;;;5073535;28;20093;-69
2021/12/22 01:59:45;;;;;;;28.27;15.53;;;2.10;72.70;;;;;;5073066;28;20111;-69
2021/12/22 02:02:12;;;;;;;29.13;17.33;;;2.10;72.80;;;;;;5072958;28;20051;-69
2021/12/22 02:04:38;;;;;;;32.17;16.57;;;2.10;72.80;;;;;;5074112;28;20028;-69
2021/12/22 02:07:06;;;;;;;27.37;16.67;;;2.10;72.80;;;;;;5074018;28;20429;-69
2021/12/22 02:12:06;;;;;;;29.80;16.70;;;2.00;72.80;;;;;;5073890;28;20051;-69
2021/12/22 02:14:31;;;;;;;24.60;15.83;;;2.00;72.70;;;;;;5074285;28;20036;-69
2021/12/22 02:16:57;;;;;;;29.37;15.67;;;2.00;72.70;;;;;;5072567;28;20039;-69
2021/12/22 02:19:23;;;;;;;28.80;16.50;;;2.00;72.70;;;;;;5072760;28;20421;-69
2021/12/22 02:21:54;;;;;;;24.93;15.07;;;2.00;72.70;;;;;;5072743;28;20036;-69
2021/12/22 02:24:19;;;;;;;27.65;17.33;;;2.00;72.70;;;;;;5052278;28;20039;-69
2021/12/22 02:26:53;;;;;;;29.27;16.70;;;2.00;72.70;;;;;;5065295;28;20029;-69
2021/12/22 02:29:22;;;;;;;26.63;16.50;;;2.00;72.70;;;;;;5073839;28;20044;-68
2021/12/22 02:32:04;;;;;;;26.83;15.50;;;2.00;72.70;;;;;;5054201;28;20116;-69
2021/12/22 02:34:38;;;;;;;26.48;16.20;;;2.00;72.60;;;;;;5074015;28;20109;-69
2021/12/22 02:37:10;;;;;;;23.17;13.67;;;1.90;72.60;;;;;;5073947;28;20098;-69
2021/12/22 02:39:36;;;;;;;24.05;14.80;;;1.90;72.60;;;;;;5073527;28;20040;-69
2021/12/22 02:42:01;;;;;;;25.17;14.80;;;1.80;72.60;;;;;;5073154;28;20016;-69
2021/12/22 02:44:27;;;;;;;28.87;17.00;;;1.80;72.80;;;;;;5072961;28;20445;-69
2021/12/22 02:46:53;;;;;;;26.40;15.10;;;1.80;72.80;;;;;;5072768;28;20028;-69
2021/12/22 02:49:18;;;;;;;27.97;15.10;;;1.80;72.70;;;;;;5072852;28;20024;-69
2021/12/22 02:51:44;;;;;;;28.13;15.40;;;1.80;72.60;;;;;;5073914;28;20029;-69
2021/12/22 02:54:16;;;;;;;26.87;15.63;;;1.80;72.50;;;;;;5072880;28;20024;-69
2021/12/22 03:02:22;;;;;;;28.23;16.00;;;1.80;72.60;;;;;;5073282;28;20040;-69
2021/12/22 03:04:31;;;;;;;26.37;15.97;;;1.70;72.50;;;;;;5064483;28;20024;-69
2021/12/22 03:07:00;;;;;;;27.40;15.80;;;1.70;72.50;;;;;;5072699;28;20024;-69
2021/12/22 03:09:31;;;;;;;29.23;15.27;;;1.70;72.50;;;;;;5072737;28;20037;-69
2021/12/22 03:12:00;;;;;;;27.05;15.73;;;1.70;72.50;;;;;;5073147;28;20072;-68
2021/12/22 03:14:27;;;;;;;28.73;17.73;;;1.70;72.50;;;;;;5072917;28;20024;-69
2021/12/22 03:16:54;;;;;;;27.50;16.60;;;1.70;72.50;;;;;;5056018;28;20052;-69
2021/12/22 03:19:23;;;;;;;27.07;16.37;;;1.60;72.50;;;;;;5073490;28;20025;-68
2021/12/22 03:21:52;;;;;;;27.27;15.17;;;1.60;72.50;;;;;;5072337;28;20116;-68
2021/12/22 03:24:20;;;;;;;29.33;16.37;;;1.60;72.50;;;;;;5055375;28;20032;-68
2021/12/22 03:26:46;;;;;;;27.53;15.83;;;1.60;72.40;;;;;;5072303;28;20371;-68
2021/12/22 03:29:15;;;;;;;27.43;16.77;;;1.60;72.40;;;;;;5074413;28;20045;-68
2021/12/22 03:31:41;;;;;;;32.97;16.13;;;1.60;72.30;;;;;;5064752;28;20024;-69
2021/12/22 03:34:08;;;;;;;32.80;15.80;;;1.60;72.30;;;;;;5077250;28;20056;-68
2021/12/22 03:36:35;;;;;;;24.30;15.40;;;1.60;72.30;;;;;;5059183;28;20127;-68
2021/12/22 03:39:02;;;;;;;26.83;15.03;;;1.60;72.30;;;;;;5076151;28;20116;-68
2021/12/22 03:41:27;;;;;;;26.57;14.73;;;1.60;72.30;;;;;;5058734;28;20042;-68
2021/12/22 03:43:53;;;;;;;26.77;15.47;;;1.60;72.20;;;;;;5059380;28;20032;-68
2021/12/22 03:46:18;;;;;;;30.50;16.50;;;1.60;72.20;;;;;;5075767;28;20021;-68
2021/12/22 03:48:44;;;;;;;29.90;16.30;;;1.60;72.30;;;;;;5058977;28;20036;-68
2021/12/22 03:51:10;;;;;;;30.57;15.90;;;1.60;72.20;;;;;;5076420;28;20028;-68
2021/12/22 03:53:35;;;;;;;27.30;15.07;;;1.60;72.20;;;;;;5055856;28;20021;-70
2021/12/22 03:56:01;;;;;;;26.00;15.17;;;1.60;72.20;;;;;;5073015;28;20095;-71
2021/12/22 03:58:27;;;;;;;25.27;15.70;;;1.60;72.10;;;;;;5074682;28;20036;-70
2021/12/22 04:00:55;;;;;;;26.23;14.90;;;1.50;72.00;;;;;;5073234;28;20100;-70
2021/12/22 04:03:23;;;;;;;27.20;15.63;;;1.50;72.00;;;;;;5073685;28;20025;-68
2021/12/22 04:05:49;;;;;;;26.73;14.50;;;1.50;72.00;;;;;;5073152;28;20087;-68
2021/12/22 04:08:18;;;;;;;27.83;14.50;;;1.50;72.00;;;;;;5074394;28;20361;-71
2021/12/22 04:10:45;;;;;;;23.83;14.70;;;1.50;72.00;;;;;;5074198;28;20029;-70
2021/12/22 04:13:11;;;;;;;26.57;15.53;;;1.40;72.10;;;;;;5069143;28;20033;-68
2021/12/22 04:15:36;;;;;;;27.60;15.70;;;1.40;72.10;;;;;;5062788;28;21296;-68
2021/12/22 04:18:02;;;;;;;26.57;16.13;;;1.40;72.10;;;;;;5058322;28;20040;-68
2021/12/22 04:20:29;;;;;;;28.23;14.17;;;1.40;72.10;;;;;;5058166;28;20403;-68
2021/12/22 04:22:56;;;;;;;30.70;15.93;;;1.40;72.10;;;;;;5061124;28;20032;-68
2021/12/22 04:25:22;;;;;;;26.27;15.27;;;1.40;72.10;;;;;;5054210;28;20025;-68
2021/12/22 04:27:49;;;;;;;29.33;16.50;;;1.40;72.00;;;;;;5054754;28;20028;-68
2021/12/22 04:30:15;;;;;;;30.73;16.83;;;1.40;72.00;;;;;;5058572;28;20124;-68
2021/12/22 04:32:41;;;;;;;32.20;15.90;;;1.40;72.00;;;;;;5076045;28;20055;-68
2021/12/22 04:35:07;;;;;;;25.17;14.87;;;1.40;72.10;;;;;;5067752;28;20037;-68
2021/12/22 04:37:33;;;;;;;31.57;17.67;;;1.40;72.10;;;;;;5043377;28;20029;-68
2021/12/22 04:39:58;;;;;;;28.77;15.33;;;1.30;72.00;;;;;;5054685;28;20041;-68
2021/12/22 04:42:24;;;;;;;28.90;16.30;;;1.30;72.10;;;;;;5063821;28;20039;-68
2021/12/22 04:44:53;;;;;;;26.13;15.23;;;1.30;72.10;;;;;;5054432;28;20031;-68
2021/12/22 04:47:20;;;;;;;27.33;16.07;;;1.30;72.00;;;;;;5062483;28;20025;-68
2021/12/22 04:49:46;;;;;;;25.70;15.83;;;1.30;72.00;;;;;;5059684;28;20021;-68
2021/12/22 04:52:16;;;;;;;29.90;15.60;;;1.30;72.00;;;;;;5059732;28;20052;-68
2021/12/22 04:55:03;;;;;;;28.83;16.67;;;1.30;72.00;;;;;;5054186;28;20029;-68
2021/12/22 04:57:28;;;;;;;36.33;16.70;;;1.30;72.00;;;;;;5054779;28;20052;-67
2021/12/22 04:59:53;;;;;;;29.27;16.43;;;1.20;72.00;;;;;;5056442;28;20110;-68
2021/12/22 05:02:19;;;;;;;28.47;15.57;;;1.20;72.10;;;;;;5055409;28;20021;-68
2021/12/22 05:04:45;;;;;;;32.10;16.63;;;1.20;72.10;;;;;;5054241;28;20017;-68
2021/12/22 05:07:10;;;;;;;30.80;15.00;;;1.10;72.10;;;;;;5065291;28;20020;-68
2021/12/22 05:09:36;;;;;;;28.40;15.10;;;1.10;72.20;;;;;;5061566;28;20029;-68
2021/12/22 05:12:02;;;;;;;28.47;15.50;;;1.10;72.20;;;;;;5058464;28;20043;-68
2021/12/22 05:14:28;;;;;;;28.53;14.67;;;1.10;72.10;;;;;;5058426;28;20059;-68
2021/12/22 05:16:59;;;;;;;29.10;14.90;;;1.10;72.00;;;;;;5057336;28;20113;-68
2021/12/22 05:19:28;;;;;;;30.45;15.30;;;1.20;72.00;;;;;;5052775;28;20033;-68
2021/12/22 05:21:54;;;;;;;32.27;15.43;;;1.10;71.90;;;;;;5064722;28;20028;-68
2021/12/22 05:24:20;;;;;;;29.83;15.73;;;1.10;71.90;;;;;;5073852;28;20020;-68
2021/12/22 05:26:46;;;;;;;31.43;15.93;;;1.10;71.90;;;;;;5073949;28;20396;-68
2021/12/22 05:29:14;;;;;;;28.57;15.73;;;1.10;71.80;;;;;;5073221;28;20074;-68
2021/12/22 05:31:40;;;;;;;28.53;15.60;;;1.10;71.90;;;;;;5073513;28;20507;-68
2021/12/22 05:34:08;;;;;;;27.40;14.80;;;1.10;71.90;;;;;;5074822;28;20119;-68
2021/12/22 05:36:33;;;;;;;27.83;15.70;;;1.00;71.80;;;;;;5073873;28;20100;-68
2021/12/22 05:38:59;;;;;;;30.93;15.33;;;1.00;71.80;;;;;;5074146;28;20070;-68
2021/12/22 05:41:25;;;;;;;26.40;14.77;;;1.00;71.80;;;;;;5072969;28;20059;-68
2021/12/22 05:43:51;;;;;;;33.20;17.53;;;1.00;71.80;;;;;;5074464;28;20016;-68
2021/12/22 05:46:17;;;;;;;34.57;16.60;;;1.00;71.80;;;;;;5073884;28;20029;-68
2021/12/22 05:48:48;;;;;;;28.60;16.17;;;1.00;71.80;;;;;;5073033;28;20036;-68
2021/12/22 05:51:14;;;;;;;30.45;16.13;;;0.90;71.80;;;;;;5074096;28;20130;-68
2021/12/22 05:53:39;;;;;;;29.70;16.20;;;1.00;71.90;;;;;;5073002;28;20075;-68
2021/12/22 05:56:05;;;;;;;31.47;16.17;;;0.90;71.70;;;;;;5074023;28;20029;-67
2021/12/22 05:58:30;;;;;;;30.70;16.37;;;1.00;71.80;;;;;;5073195;28;20452;-68
2021/12/22 06:00:56;;;;;;;31.07;17.97;;;1.00;71.70;;;;;;5074565;28;20105;-67
2021/12/22 06:03:22;;;;;;;30.10;16.10;;;1.00;71.60;;;;;;5073261;28;20032;-68
2021/12/22 06:05:48;;;;;;;29.97;16.10;;;0.90;71.60;;;;;;5073185;28;20025;-68
2021/12/22 06:08:14;;;;;;;35.97;17.23;;;0.90;71.60;;;;;;5073680;28;20038;-68
2021/12/22 06:10:39;;;;;;;33.00;17.37;;;0.90;71.60;;;;;;5073372;28;20033;-68
2021/12/22 06:13:07;;;;;;;31.33;16.90;;;0.80;71.70;;;;;;5072886;28;20037;-68
2021/12/22 06:15:35;;;;;;;34.63;17.33;;;0.80;72.40;;;;;;5072853;28;20064;-68
2021/12/22 06:18:02;;;;;;;31.77;15.80;;;0.80;71.80;;;;;;5073051;28;20029;-68
2021/12/22 06:20:28;;;;;;;31.40;17.20;;;0.80;71.80;;;;;;5072109;28;20040;-69
2021/12/22 06:22:54;;;;;;;33.43;17.67;;;0.80;71.80;;;;;;5052911;28;20068;-68
2021/12/22 06:25:21;;;;;;;30.83;17.20;;;0.80;71.80;;;;;;5072806;28;20021;-68
2021/12/22 06:27:46;;;;;;;32.30;17.70;;;0.80;71.80;;;;;;5072970;28;20035;-68
2021/12/22 06:30:12;;;;;;;35.67;18.20;;;0.80;71.80;;;;;;5073469;28;20473;-68
2021/12/22 06:32:38;;;;;;;32.60;17.80;;;0.80;71.70;;;;;;5072947;28;20070;-68
2021/12/22 06:35:04;;;;;;;29.67;16.80;;;0.80;71.80;;;;;;5073721;28;20108;-68
2021/12/22 06:37:30;;;;;;;31.87;17.13;;;0.80;71.80;;;;;;5073200;28;20037;-68
2021/12/22 06:39:56;;;;;;;32.83;18.40;;;0.80;71.80;;;;;;5055712;28;20016;-68
2021/12/22 06:42:23;;;;;;;32.63;18.07;;;0.70;71.80;;;;;;5074183;28;20028;-68
2021/12/22 06:44:49;;;;;;;34.50;17.57;;;0.70;71.80;;;;;;5056287;28;20029;-68
2021/12/22 06:47:15;;;;;;;30.87;16.37;;;0.80;71.90;;;;;;5074259;28;20024;-68
2021/12/22 06:49:41;;;;;;;32.37;17.33;;;0.80;71.90;;;;;;5072895;28;20309;-68
2021/12/22 06:52:07;;;;;;;31.30;16.97;;;0.70;71.90;;;;;;5056839;28;20033;-68
2021/12/22 06:54:33;;;;;;;35.00;18.10;;;0.70;71.90;;;;;;5073220;28;20089;-68
2021/12/22 06:56:59;;;;;;;33.60;17.67;;;0.70;71.90;;;;;;5072938;28;20082;-68
2021/12/22 06:59:25;;;;;;;36.53;18.80;;;0.80;72.00;;;;;;5072664;28;20029;-68
2021/12/22 07:01:51;;;;;;;30.20;16.50;;;0.80;72.00;;;;;;5072823;28;20102;-68
2021/12/22 07:04:19;;;;;;;34.93;17.10;;;0.80;72.00;;;;;;5076100;28;20025;-68
2021/12/22 07:06:45;;;;;;;31.67;17.07;;;0.80;72.00;;;;;;5060777;28;20020;-67
2021/12/22 07:09:11;;;;;;;31.30;16.43;;;0.80;72.00;;;;;;5077604;28;20041;-67
2021/12/22 07:11:38;;;;;;;31.57;17.30;;;0.80;71.90;;;;;;5076552;28;20032;-68
2021/12/22 07:14:07;;;;;;;31.63;17.60;;;0.80;71.90;;;;;;5076259;28;20369;-68
2021/12/22 07:16:33;;;;;;;33.97;18.67;;;0.80;71.90;;;;;;5076767;28;20031;-67
2021/12/22 07:18:59;;;;;;;32.17;16.13;;;0.80;71.90;;;;;;5076457;28;20029;-67
2021/12/22 07:21:25;;;;;;;36.37;19.27;;;0.80;71.90;;;;;;5073577;28;20024;-68
2021/12/22 07:23:51;;;;;;;32.13;17.30;;;0.80;71.80;;;;;;5064477;28;20025;-68
2021/12/22 07:26:16;;;;;;;33.13;17.33;;;0.80;71.80;;;;;;5056541;28;20050;-68
2021/12/22 07:28:47;;;;;;;35.50;18.73;;;0.90;71.90;;;;;;5057382;28;20460;-68
2021/12/22 07:31:14;;;;;;;34.97;18.90;;;0.90;71.90;;;;;;5055182;28;20068;-68
2021/12/22 07:33:48;;;;;;;33.20;18.60;;;0.90;72.60;;;;;;5067180;28;20044;-67
2021/12/22 07:36:14;;;;;;;38.30;18.27;;;0.90;71.90;;;;;;5070871;28;20036;-67
2021/12/22 07:38:39;;;;;;;35.00;18.50;;;0.90;71.90;;;;;;5072077;28;20025;-68
2021/12/22 07:41:07;;;;;;;34.90;18.07;;;0.80;71.80;;;;;;5076919;28;20348;-68
2021/12/22 07:43:33;;;;;;;32.07;17.10;;;0.80;71.80;;;;;;5076832;28;20021;-67
2021/12/22 07:45:59;;;;;;;33.27;16.90;;;0.80;71.90;;;;;;5076773;28;20051;-67
2021/12/22 07:48:25;;;;;;;31.33;16.50;;;0.80;72.00;;;;;;5076405;28;20102;-67
2021/12/22 07:50:51;;;;;;;32.83;17.77;;;0.80;72.00;;;;;;5077181;28;20034;-68
2021/12/22 07:53:16;;;;;;;35.27;17.60;;;0.80;72.10;;;;;;5077376;28;20376;-68
2021/12/22 07:55:42;;;;;;;36.53;17.53;;;0.80;72.10;;;;;;5075416;28;20052;-68
2021/12/22 07:58:08;;;;;;;31.13;17.10;;;0.80;72.10;;;;;;5075550;28;20032;-68
2021/12/22 08:00:35;;;;;;;36.43;18.67;;;0.90;72.20;;;;;;5076693;28;20035;-67
2021/12/22 08:03:01;;;;;;;33.70;17.33;;;0.90;72.80;;;;;;5075755;28;20124;-68
2021/12/22 08:05:26;;;;;;;34.77;17.77;;;0.90;72.10;;;;;;5075795;28;20040;-68
2021/12/22 08:07:53;;;;;;;36.00;19.17;;;1.00;72.10;;;;;;5075452;28;20040;-67
2021/12/22 08:10:19;;;;;;;33.27;18.27;;;1.00;72.00;;;;;;5075159;28;20472;-68
2021/12/22 08:12:44;;;;;;;33.27;18.70;;;1.00;72.00;;;;;;5074664;28;20032;-67
2021/12/22 08:15:10;;;;;;;35.47;17.63;;;1.00;72.00;;;;;;5074670;28;20031;-68
2021/12/22 08:17:35;;;;;;;30.07;16.33;;;1.00;72.00;;;;;;5075932;28;20038;-69
2021/12/22 08:20:03;;;;;;;34.50;17.53;;;1.00;71.90;;;;;;5074955;28;20109;-68
2021/12/22 08:22:29;;;;;;;36.43;17.90;;;1.00;71.90;;;;;;5055208;28;20052;-68
2021/12/22 08:24:55;;;;;;;30.83;18.23;;;1.00;71.80;;;;;;5072008;28;20060;-69
2021/12/22 08:27:22;;;;;;;36.83;19.23;;;1.00;71.90;;;;;;5076582;28;20025;-67
2021/12/22 08:29:49;;;;;;;32.27;18.20;;;1.10;72.00;;;;;;5074494;28;20129;-70
2021/12/22 08:32:15;;;;;;;35.17;17.80;;;1.10;71.90;;;;;;5075121;28;20036;-71
2021/12/22 08:34:42;;;;;;;34.13;17.93;;;1.10;71.90;;;;;;5074050;28;20090;-70
2021/12/22 08:39:55;;;;;;;35.47;18.33;;;1.20;71.90;;;;;;5074219;28;20111;-68
2021/12/22 08:42:22;;;;;;;34.00;17.23;;;1.20;71.80;;;;;;5075142;28;20055;-70
2021/12/22 08:44:48;;;;;;;30.73;16.60;;;1.30;71.90;;;;;;5074851;28;20031;-70
2021/12/22 08:47:14;;;;;;;33.90;17.27;;;1.30;71.90;;;;;;5074363;28;20025;-70
2021/12/22 08:49:40;;;;;;;32.07;17.23;;;1.30;71.80;;;;;;5074939;28;20044;-70
2021/12/22 08:52:06;;;;;;;29.90;16.73;;;1.30;71.80;;;;;;5058307;28;20115;-70
2021/12/22 08:54:32;;;;;;;29.90;16.23;;;1.40;71.80;;;;;;5074841;28;20123;-71
2021/12/22 08:56:58;;;;;;;36.50;17.33;;;1.40;71.80;;;;;;5074369;28;20033;-71
2021/12/22 08:59:24;;;;;;;33.03;17.70;;;1.40;71.80;;;;;;5074838;28;20020;-71
2021/12/22 09:01:51;;;;;;;28.77;16.67;;;1.40;71.80;;;;;;5075903;28;20380;-72
2021/12/22 09:04:19;;;;;;;28.80;16.50;;;1.50;71.90;;;;;;5058340;28;20028;-70
2021/12/22 09:06:45;;;;;;;28.07;16.37;;;1.50;71.80;;;;;;5075298;28;20025;-72
2021/12/22 09:09:10;;;;;;;33.57;15.93;;;1.60;71.90;;;;;;5074716;28;20024;-71
2021/12/22 09:11:37;;;;;;;31.30;16.10;;;1.60;71.80;;;;;;5074232;28;20107;-71
2021/12/22 09:14:05;;;;;;;30.20;15.83;;;1.70;71.80;;;;;;5075789;28;20039;-71
2021/12/22 09:16:36;;;;;;;30.97;15.33;;;1.70;71.80;;;;;;5073702;28;20458;-70
2021/12/22 09:19:03;;;;;;;30.67;14.93;;;1.80;71.80;;;;;;5074007;28;20032;-70
2021/12/22 09:21:29;;;;;;;35.47;15.73;;;1.80;71.70;;;;;;5074803;28;20111;-71
2021/12/22 09:23:55;;;;;;;30.53;14.47;;;1.90;72.40;;;;;;5075370;28;20021;-70
2021/12/22 09:26:22;;;;;;;27.57;15.00;;;1.90;71.70;;;;;;5073179;28;20027;-70
2021/12/22 09:28:49;;;;;;;32.90;15.07;;;2.00;71.60;;;;;;5073139;28;20032;-68
2021/12/22 09:31:15;;;;;;;27.33;13.43;;;2.00;71.50;;;;;;5073072;28;20487;-69
2021/12/22 09:33:41;;;;;;;26.83;14.43;;;2.00;71.50;;;;;;5057388;28;20039;-70
2021/12/22 09:36:09;;;;;;;25.97;14.23;;;2.00;71.50;;;;;;5056485;28;20555;-69
2021/12/22 09:38:35;;;;;;;25.93;13.90;;;2.10;71.60;;;;;;5075027;28;20499;-69
2021/12/22 09:41:03;;;;;;;22.70;13.17;;;2.10;71.50;;;;;;5072987;28;20054;-68
2021/12/22 09:43:29;;;;;;;25.10;13.10;;;2.20;71.60;;;;;;5073576;28;20362;-68
2021/12/22 09:46:01;;;;;;;26.57;13.33;;;2.20;71.60;;;;;;5073430;28;20024;-67
2021/12/22 09:53:47;;;;;;;23.73;13.27;;;2.30;71.50;;;;;;5054154;28;20029;-67
2021/12/22 09:56:20;;;;;;;23.97;12.17;;;2.30;71.50;;;;;;5055282;28;20036;-68
2021/12/22 09:58:47;;;;;;;19.67;11.13;;;2.30;71.60;;;;;;5044426;28;20115;-67
2021/12/22 10:01:14;;;;;;;19.23;11.10;;;2.30;71.60;;;;;;5061213;28;20361;-67
2021/12/22 10:03:40;;;;;;;24.77;11.97;;;2.40;71.60;;;;;;5052590;28;20028;-67
2021/12/22 10:06:06;;;;;;;19.17;11.57;;;2.50;71.60;;;;;;5057165;28;20027;-67
2021/12/22 10:08:33;;;;;;;23.33;11.47;;;2.50;71.50;;;;;;5057974;28;20490;-67
2021/12/22 10:11:11;;;;;;;21.60;11.60;;;2.60;71.40;;;;;;5056302;28;20089;-67
2021/12/22 10:13:41;;;;;;;23.17;12.97;;;2.70;71.30;;;;;;5073346;28;20102;-67
2021/12/22 10:16:43;;;;;;;23.93;11.60;;;2.70;71.20;;;;;;5053631;28;20484;-66
2021/12/22 10:19:11;;;;;;;19.90;10.10;;;2.90;71.10;;;;;;5074466;28;20029;-68
2021/12/22 10:21:52;;;;;;;17.80;9.77;;;2.90;70.90;;;;;;5059386;28;20408;-68
2021/12/22 10:24:17;;;;;;;20.07;10.53;;;3.00;70.70;;;;;;5055094;28;20032;-67
2021/12/22 10:26:43;;;;;;;18.60;10.27;;;3.10;70.80;;;;;;5059401;28;20048;-68
2021/12/22 10:29:09;;;;;;;24.57;11.33;;;3.10;70.70;;;;;;5052219;28;20061;-68
2021/12/22 10:31:43;;;;;;;19.97;10.77;;;3.20;70.60;;;;;;5053361;28;20029;-67
2021/12/22 10:34:19;;;;;;;16.80;9.83;;;3.20;70.50;;;;;;5055091;28;20021;-67
2021/12/22 10:36:46;;;;;;;19.90;11.57;;;3.30;70.40;;;;;;5043553;28;20523;-66
2021/12/22 10:39:28;;;;;;;19.67;11.57;;;3.30;70.40;;;;;;5061458;28;20039;-67
2021/12/22 10:42:11;;;;;;;;;;;3.20;70.40;;;;;;5062923;28;20025;-67
2021/12/22 10:44:40;;;;;;;22.00;11.50;;;3.20;70.50;;;;;;5052878;28;19974;-67
2021/12/22 10:47:22;;;;;;;17.40;9.10;;;3.20;70.50;;;;;;5061693;28;20111;-68
2021/12/22 10:50:06;;;;;;;19.20;10.90;;;3.20;70.50;;;;;;5068217;28;20102;-67
2021/12/22 10:52:33;;;;;;;21.60;10.43;;;3.20;70.40;;;;;;5071817;28;20039;-69
2021/12/22 10:55:10;;;;;;;19.30;11.07;;;3.20;70.50;;;;;;5071542;28;20056;-68
2021/12/22 10:57:41;;;;;;;20.50;10.90;;;3.30;70.50;;;;;;5070046;28;20445;-68
2021/12/22 11:00:19;;;;;;;17.48;10.43;;;3.30;70.40;;;;;;5069946;28;20133;-68
2021/12/22 11:03:01;;;;;;;20.77;10.33;;;3.40;70.40;;;;;;5065130;28;20116;-69
2021/12/22 11:05:29;;;;;;;;;;;3.40;70.30;;;;;;5066546;28;20050;-68
2021/12/22 11:07:55;;;;;;;18.10;9.60;;;3.40;70.30;;;;;;5061431;28;20003;-68
2021/12/22 11:10:29;;;;;;;17.20;10.63;;;3.40;70.30;;;;;;5064269;28;20752;-69
2021/12/22 11:13:03;;;;;;;20.63;9.80;;;3.40;70.30;;;;;;5072418;28;20029;-69
2021/12/22 11:15:29;;;;;;;17.07;9.93;;;3.50;70.30;;;;;;5071463;28;20081;-67
2021/12/22 11:17:55;;;;;;;18.13;10.40;;;3.50;70.30;;;;;;5070850;28;20074;-67
2021/12/22 11:20:25;;;;;;;90.37;16.70;;;3.60;70.20;;;;;;5071819;28;20024;-66
2021/12/22 11:22:59;;;;;;;19.97;10.30;;;3.60;70.10;;;;;;5070667;28;20029;-66
2021/12/22 11:25:27;;;;;;;19.57;10.63;;;3.60;70.10;;;;;;5069050;28;20027;-67
2021/12/22 11:27:54;;;;;;;21.67;10.40;;;3.60;70.20;;;;;;5071100;28;20021;-64
2021/12/22 11:30:22;;;;;;;16.00;9.70;;;3.60;70.20;;;;;;5070677;28;20048;-64
2021/12/22 11:32:48;;;;;;;20.73;10.20;;;3.50;70.20;;;;;;5071991;28;20511;-65
2021/12/22 11:35:15;;;;;;;18.13;10.57;;;3.60;70.30;;;;;;5070990;28;20050;-64
2021/12/22 11:37:42;;;;;;;18.80;10.47;;;3.50;70.20;;;;;;5054061;28;20035;-63
2021/12/22 11:40:10;;;;;;;17.77;10.20;;;3.60;70.20;;;;;;5071900;28;20036;-63
2021/12/22 11:42:39;;;;;;;17.33;10.17;;;3.60;70.10;;;;;;5055313;28;20052;-64
2021/12/22 11:45:12;;;;;;;25.00;11.33;;;3.60;70.00;;;;;;5069387;28;20039;-74
2021/12/22 11:47:43;;;;;;;18.53;10.57;;;3.70;70.10;;;;;;5073151;28;20113;-68
2021/12/22 11:50:19;;;;;;;19.98;10.98;;;3.70;70.20;;;;;;5073106;28;20203;-74
2021/12/22 11:52:55;;;;;;;16.03;9.60;;;3.70;70.10;;;;;;5058643;28;20024;-70
2021/12/22 11:55:38;;;;;;;17.83;10.60;;;3.70;70.10;;;;;;5074245;28;20509;-71
2021/12/22 11:58:23;;;;;;;18.13;10.43;;;3.70;70.00;;;;;;5058646;28;20086;-69
2021/12/22 12:00:54;;;;;;;18.30;9.73;;;3.70;70.10;;;;;;5075841;28;20067;-71
2021/12/22 12:03:20;;;;;;;20.98;10.77;;;3.70;70.10;;;;;;5075105;28;20035;-70
2021/12/22 12:06:12;;;;;;;19.10;10.30;;;3.70;70.10;;;;;;5075194;28;20392;-70
2021/12/22 12:08:50;;;;;;;21.13;10.70;;;3.70;70.00;;;;;;5075132;28;20111;-70
2021/12/22 12:11:49;;;;;;;16.87;10.00;;;3.80;70.10;;;;;;5074117;28;20177;-70
2021/12/22 12:23:22;;;;;;;21.43;11.37;;;3.80;69.90;;;;;;5057183;28;20033;-70
2021/12/22 12:25:48;;;;;;;19.50;10.03;;;3.90;69.90;;;;;;5056301;28;20039;-70
2021/12/22 12:28:16;;;;;;;22.03;10.53;;;3.90;69.90;;;;;;5056374;28;20025;-70
2021/12/22 12:30:43;;;;;;;21.37;11.07;;;3.90;69.90;;;;;;5055546;28;20063;-70
2021/12/22 12:33:13;;;;;;;21.07;11.47;;;3.80;69.90;;;;;;5055945;28;20059;-70
2021/12/22 12:35:55;;;;;;;17.70;10.07;;;3.90;69.90;;;;;;5055527;28;20458;-70
2021/12/22 12:38:30;;;;;;;17.53;10.43;;;3.90;69.90;;;;;;5075910;28;20396;-71
2021/12/22 12:41:11;;;;;;;18.10;10.30;;;3.90;70.00;;;;;;5074906;28;20064;-70
2021/12/22 12:43:47;;;;;;;18.57;10.93;;;3.90;70.00;;;;;;5075162;28;20025;-71
2021/12/22 12:46:24;;;;;;;18.27;10.17;;;3.80;70.00;;;;;;5073967;28;20356;-70
2021/12/22 12:49:03;;;;;;;19.50;11.50;;;3.90;70.00;;;;;;5075223;28;20120;-70
2021/12/22 12:51:36;;;;;;;20.77;11.97;;;3.80;70.00;;;;;;5073854;28;20047;-69
2021/12/22 12:54:21;;;;;;;18.90;10.07;;;3.80;70.10;;;;;;5072208;28;20472;-70
2021/12/22 12:56:51;;;;;;;19.20;11.43;;;3.80;70.10;;;;;;5043118;28;20028;-68
2021/12/22 12:59:27;;;;;;;20.83;11.20;;;3.80;70.20;;;;;;5074940;28;20098;-69
2021/12/22 13:01:58;;;;;;;17.27;10.90;;;3.70;70.20;;;;;;5073952;28;20408;-70
2021/12/22 13:04:30;;;;;;;19.27;12.20;;;3.70;70.40;;;;;;5056777;28;20441;-69
2021/12/22 13:07:01;;;;;;;;;;;3.60;70.40;;;;;;5057203;28;20036;-70
2021/12/22 13:09:39;;;;;;;20.55;12.48;;;3.70;70.60;;;;;;5073411;28;19913;-70
2021/12/22 13:17:40;;;;;;;19.40;11.90;;;3.70;70.40;;;;;;5080964;28;20476;-71